Powell River, Canada
Current Conditions -  °F | °C
As of 7:00 PM on Tuesday 27 Jan 2015 (Local Time) from CYPW Reporting Station
Broken Clouds Broken Clouds  
Wind Chill: 41°   Ceiling: 8000
Heat Index: 41°   Visibility: 20mi
Dew Point: 41°   Wind: 0mph
Humidity: 100%   Direction: NA
Pressure: 30.16"   Gusts: NA
Location:  49.84°N, 124.52°W
Report Text: CYPW 280300Z 00000KT 20SM FEW008 FEW020 SCT040 BKN080 05/05 A3016 RMK SF1SC1SC2AC1 LAST OBS/NEXT 281500 UTC SLP217
Loading
Personal Weather Stations






























Interactive Weather Map New forecast layout! Learn more

10-Day Weather Forecast

Advertisements
Track Severe Weather on mobile